createdAt,value
2023-03-23T15:58:50.475Z,4.00
2023-03-23T16:01:31.137Z,9.40
2023-03-23T16:04:08.717Z,26.60
2023-03-23T16:06:37.426Z,22.30
2023-03-23T16:09:06.685Z,20.50
2023-03-23T16:11:34.236Z,32.70
2023-03-23T16:14:01.881Z,32.90
2023-03-23T16:16:40.208Z,51.10
2023-03-23T16:19:08.272Z,45.10
2023-03-23T16:21:35.653Z,24.30
2023-03-23T16:24:03.721Z,32.60
2023-03-23T16:26:31.155Z,27.50
2023-03-23T16:29:09.601Z,8.50
2023-03-23T16:31:42.110Z,33.50
2023-03-23T16:34:09.812Z,21.80
2023-03-23T16:36:37.154Z,37.10
2023-03-23T16:39:04.505Z,32.00
2023-03-23T16:41:31.774Z,26.70
2023-03-23T16:43:59.237Z,26.80
2023-03-23T16:46:26.603Z,6.00
2023-03-23T16:48:53.915Z,2.00
2023-03-23T16:51:21.461Z,1.50
2023-03-23T16:53:49.481Z,1.00
2023-03-23T16:56:16.834Z,0.70
2023-03-23T16:58:44.158Z,1.00
2023-03-23T17:01:12.082Z,1.00
2023-03-23T17:03:41.827Z,1.10
2023-03-23T17:06:10.037Z,0.50
2023-03-23T17:08:37.295Z,0.40
2023-03-23T17:11:04.781Z,0.80
2023-03-23T17:13:31.998Z,1.00
2023-03-23T17:15:59.401Z,27.80
2023-03-23T17:18:28.756Z,37.40
2023-03-23T17:20:56.513Z,40.90
2023-03-23T17:23:24.612Z,17.20
2023-03-23T17:25:52.220Z,7.80
2023-03-23T17:28:21.032Z,12.60
2023-03-23T17:30:48.820Z,11.40
2023-03-23T17:33:16.262Z,9.10
2023-03-23T17:35:47.170Z,27.10
2023-03-23T17:38:14.884Z,27.40
2023-03-23T17:40:42.147Z,30.80
2023-03-23T17:43:09.518Z,18.00
2023-03-23T17:45:37.251Z,29.50
2023-03-23T17:48:08.351Z,35.10
2023-03-23T17:50:36.820Z,20.30
2023-03-23T17:53:04.677Z,55.80
2023-03-23T17:55:31.927Z,50.50
2023-03-23T17:57:59.326Z,35.20
2023-03-23T18:00:26.696Z,43.30
2023-03-23T18:02:54.032Z,20.20
2023-03-23T18:05:21.495Z,37.10
2023-03-23T18:07:48.827Z,23.40
2023-03-23T18:10:16.442Z,18.40
2023-03-23T18:12:43.704Z,42.30
2023-03-23T18:15:11.929Z,15.70
2023-03-23T18:17:39.310Z,4.50
2023-03-23T18:20:07.808Z,3.90
2023-03-23T18:22:35.146Z,2.40
2023-03-23T18:25:04.506Z,1.60
2023-03-23T18:27:32.123Z,1.60
2023-03-23T18:29:59.971Z,1.50
2023-03-23T18:32:28.057Z,1.80
2023-03-23T18:34:56.477Z,1.70
2023-03-23T18:37:23.986Z,2.40
2023-03-23T18:39:51.894Z,2.30
2023-03-23T18:42:19.826Z,2.00
2023-03-23T18:44:47.464Z,2.20
2023-03-23T18:47:15.070Z,2.80
2023-03-23T18:49:42.717Z,2.00
2023-03-23T18:52:10.394Z,22.60
2023-03-23T18:54:40.519Z,21.80
2023-03-23T18:57:07.858Z,29.80
2023-03-23T18:59:36.120Z,14.20
2023-03-23T19:02:05.207Z,4.80
2023-03-23T19:04:33.251Z,3.20
2023-03-23T19:07:01.808Z,3.80
2023-03-23T19:09:30.677Z,4.40
2023-03-23T19:11:58.200Z,5.80
2023-03-23T19:14:26.176Z,9.30
2023-03-23T19:16:53.836Z,3.30
2023-03-23T19:19:22.073Z,7.20
2023-03-23T19:21:49.678Z,12.20
2023-03-23T19:24:17.105Z,11.00
2023-03-23T19:26:46.627Z,9.80
2023-03-23T19:31:47.206Z,13.30
2023-03-23T19:34:16.064Z,15.90
2023-03-23T19:36:53.789Z,20.40
2023-03-23T19:39:23.635Z,51.60
2023-03-23T19:41:51.399Z,63.50
2023-03-23T19:44:19.044Z,42.80
2023-03-23T19:46:48.414Z,32.20
2023-03-23T19:49:16.421Z,8.90
2023-03-23T19:51:43.813Z,4.00
2023-03-23T19:54:13.410Z,18.00
2023-03-23T19:56:43.520Z,8.00
2023-03-23T19:59:15.008Z,7.20
2023-03-23T20:01:44.281Z,2.00
2023-03-23T20:04:12.187Z,1.90
2023-03-23T20:06:39.898Z,7.40
2023-03-23T20:09:07.528Z,9.30
2023-03-23T20:11:35.133Z,10.20
2023-03-23T20:14:03.067Z,5.30
2023-03-23T20:16:31.336Z,10.00
2023-03-23T20:19:00.273Z,3.00
2023-03-23T20:21:28.302Z,13.80
2023-03-23T20:23:57.646Z,4.30
2023-03-23T20:26:38.148Z,17.10
2023-03-23T20:29:07.370Z,5.60
2023-03-23T20:31:38.954Z,1.20
2023-03-23T20:34:11.072Z,1.60
2023-03-23T20:36:42.524Z,1.50
2023-03-23T20:39:15.451Z,1.60
2023-03-23T20:41:43.980Z,1.50
2023-03-23T20:44:16.685Z,1.50
2023-03-23T20:46:45.996Z,1.50
2023-03-23T20:49:15.192Z,1.50
2023-03-23T20:51:43.916Z,1.70
2023-03-23T20:54:14.405Z,2.00
2023-03-23T20:56:43.853Z,2.30
2023-03-23T20:59:12.588Z,2.10
2023-03-23T21:01:40.775Z,1.80
2023-03-23T21:04:15.462Z,1.40
2023-03-23T21:06:44.870Z,1.90
2023-03-23T21:09:14.053Z,2.10
2023-03-23T21:11:42.272Z,2.00
2023-03-23T21:14:10.838Z,2.20
2023-03-23T21:16:38.389Z,2.20
2023-03-23T21:19:06.786Z,2.50
2023-03-23T21:21:34.626Z,2.20
2023-03-23T21:24:02.128Z,2.40
2023-03-23T21:26:30.574Z,2.90
2023-03-23T21:29:00.675Z,2.70
2023-03-23T21:31:33.432Z,2.40
2023-03-23T21:34:01.168Z,2.90
2023-03-23T21:36:29.047Z,2.60
2023-03-23T21:38:57.522Z,2.10
2023-03-23T21:41:25.239Z,2.10
2023-03-23T21:43:52.770Z,2.50
2023-03-23T21:46:20.296Z,2.30
2023-03-23T21:48:51.618Z,2.20
2023-03-23T21:51:30.008Z,2.60
2023-03-23T21:53:57.680Z,2.20
2023-03-23T21:56:27.549Z,2.90
2023-03-23T21:58:57.008Z,2.80
2023-03-23T22:01:24.923Z,2.90
2023-03-23T22:03:52.576Z,3.10
2023-03-23T22:06:34.647Z,2.80
2023-03-23T22:09:05.658Z,2.80
2023-03-23T22:11:33.750Z,2.30
2023-03-23T22:14:01.652Z,2.30
2023-03-23T22:16:29.689Z,2.30
2023-03-23T22:19:00.370Z,2.30
2023-03-23T22:21:29.010Z,2.20
2023-03-23T22:23:58.511Z,2.10
2023-03-23T22:26:27.815Z,2.20
2023-03-23T22:28:56.085Z,2.20
2023-03-23T22:31:26.751Z,2.00
2023-03-23T22:33:56.218Z,2.80
2023-03-23T22:36:25.628Z,2.20
2023-03-23T22:38:55.135Z,2.10
2023-03-23T22:41:38.196Z,2.50
2023-03-23T22:44:08.963Z,1.90
2023-03-23T22:46:36.638Z,2.10
2023-03-23T22:49:04.110Z,2.80
2023-03-23T22:51:31.979Z,2.10
2023-03-23T22:53:59.292Z,2.10
2023-03-23T22:56:26.806Z,1.80
2023-03-23T22:58:54.775Z,2.00
2023-03-23T23:01:23.029Z,1.50
2023-03-23T23:03:50.830Z,1.70
2023-03-23T23:06:19.452Z,1.40
2023-03-23T23:08:47.908Z,1.50
2023-03-23T23:11:18.194Z,1.30
2023-03-23T23:13:45.827Z,1.30
2023-03-23T23:16:17.441Z,1.40
2023-03-23T23:18:47.725Z,1.60
2023-03-23T23:21:18.703Z,1.40
2023-03-23T23:23:46.940Z,1.90
2023-03-23T23:26:16.161Z,1.50
2023-03-23T23:28:44.282Z,1.90
2023-03-23T23:31:40.053Z,1.90
2023-03-23T23:34:07.568Z,1.70
2023-03-23T23:36:34.808Z,1.40
2023-03-23T23:39:06.261Z,1.70
2023-03-23T23:41:36.942Z,1.70
2023-03-23T23:44:04.776Z,1.60
2023-03-23T23:46:32.479Z,1.90
2023-03-23T23:49:02.562Z,1.80
2023-03-23T23:51:30.276Z,1.40
2023-03-23T23:53:59.273Z,1.60
2023-03-23T23:56:26.904Z,1.50
2023-03-23T23:58:54.267Z,1.50
